sensor_id;sensor_type;location;lat;lon;timestamp;temperature;humidity
31979;DHT22;18502;43.574;1.276;2023-04-01T00:00:19;10.70;99.90
31979;DHT22;18502;43.574;1.276;2023-04-01T00:02:44;10.60;99.90
31979;DHT22;18502;43.574;1.276;2023-04-01T00:05:11;10.80;99.90
31979;DHT22;18502;43.574;1.276;2023-04-01T00:07:38;10.70;99.90
31979;DHT22;18502;43.574;1.276;2023-04-01T00:10:06;10.60;99.90
31979;DHT22;18502;43.574;1.276;2023-04-01T00:12:33;10.50;99.90
31979;DHT22;18502;43.574;1.276;2023-04-01T00:14:58;10.50;99.90
31979;DHT22;18502;43.574;1.276;2023-04-01T00:17:24;10.50;99.90
31979;DHT22;18502;43.574;1.276;2023-04-01T00:19:50;10.60;99.90
31979;DHT22;18502;43.574;1.276;2023-04-01T00:22:16;10.50;99.90
31979;DHT22;18502;43.574;1.276;2023-04-01T00:24:42;10.50;99.90
31979;DHT22;18502;43.574;1.276;2023-04-01T00:27:07;10.50;99.90
31979;DHT22;18502;43.574;1.276;2023-04-01T00:29:34;10.40;99.90
31979;DHT22;18502;43.574;1.276;2023-04-01T00:32:00;10.40;99.90
31979;DHT22;18502;43.574;1.276;2023-04-01T00:34:26;10.30;99.90
31979;DHT22;18502;43.574;1.276;2023-04-01T00:36:52;10.30;99.90
31979;DHT22;18502;43.574;1.276;2023-04-01T00:39:19;10.30;99.90
31979;DHT22;18502;43.574;1.276;2023-04-01T00:41:44;10.30;99.90
31979;DHT22;18502;43.574;1.276;2023-04-01T00:44:44;10.30;99.90
31979;DHT22;18502;43.574;1.276;2023-04-01T00:47:10;10.20;99.90
31979;DHT22;18502;43.574;1.276;2023-04-01T00:49:39;10.20;99.90
31979;DHT22;18502;43.574;1.276;2023-04-01T00:52:07;10.00;99.90
31979;DHT22;18502;43.574;1.276;2023-04-01T00:54:34;10.00;99.90
31979;DHT22;18502;43.574;1.276;2023-04-01T00:57:10;10.10;99.90
31979;DHT22;18502;43.574;1.276;2023-04-01T00:59:44;10.20;99.90
31979;DHT22;18502;43.574;1.276;2023-04-01T01:02:12;10.10;99.90
31979;DHT22;18502;43.574;1.276;2023-04-01T01:04:38;10.10;99.90
31979;DHT22;18502;43.574;1.276;2023-04-01T01:37:52;10.40;99.90
31979;DHT22;18502;43.574;1.276;2023-04-01T01:40:20;10.30;99.90
31979;DHT22;18502;43.574;1.276;2023-04-01T01:42:49;10.40;99.90
31979;DHT22;18502;43.574;1.276;2023-04-01T01:45:19;10.40;99.90
31979;DHT22;18502;43.574;1.276;2023-04-01T01:47:46;10.50;99.90
31979;DHT22;18502;43.574;1.276;2023-04-01T01:50:13;10.40;99.90
31979;DHT22;18502;43.574;1.276;2023-04-01T01:52:40;10.20;99.90
31979;DHT22;18502;43.574;1.276;2023-04-01T01:55:28;10.00;99.90
31979;DHT22;18502;43.574;1.276;2023-04-01T01:57:57;10.20;99.90
31979;DHT22;18502;43.574;1.276;2023-04-01T02:00:24;10.20;99.90
31979;DHT22;18502;43.574;1.276;2023-04-01T02:02:50;10.30;99.90
31979;DHT22;18502;43.574;1.276;2023-04-01T02:05:19;10.20;99.90
31979;DHT22;18502;43.574;1.276;2023-04-01T02:11:15;10.30;99.90
31979;DHT22;18502;43.574;1.276;2023-04-01T02:13:50;10.20;99.90
31979;DHT22;18502;43.574;1.276;2023-04-01T02:16:21;10.20;99.90
31979;DHT22;18502;43.574;1.276;2023-04-01T02:18:51;10.20;99.90
31979;DHT22;18502;43.574;1.276;2023-04-01T02:21:21;10.10;99.90
31979;DHT22;18502;43.574;1.276;2023-04-01T02:23:48;10.00;99.90
31979;DHT22;18502;43.574;1.276;2023-04-01T02:26:15;9.90;99.90
31979;DHT22;18502;43.574;1.276;2023-04-01T02:28:42;10.00;99.90
31979;DHT22;18502;43.574;1.276;2023-04-01T02:31:10;9.90;99.90
31979;DHT22;18502;43.574;1.276;2023-04-01T02:33:38;9.80;99.90
31979;DHT22;18502;43.574;1.276;2023-04-01T02:36:05;9.80;99.90
31979;DHT22;18502;43.574;1.276;2023-04-01T02:38:31;9.80;99.90
31979;DHT22;18502;43.574;1.276;2023-04-01T02:40:59;9.70;99.90
31979;DHT22;18502;43.574;1.276;2023-04-01T02:43:25;9.80;99.90
31979;DHT22;18502;43.574;1.276;2023-04-01T02:45:51;9.70;99.90
31979;DHT22;18502;43.574;1.276;2023-04-01T02:48:17;9.90;99.90
31979;DHT22;18502;43.574;1.276;2023-04-01T02:50:43;9.80;99.90
31979;DHT22;18502;43.574;1.276;2023-04-01T02:53:09;9.80;99.90
31979;DHT22;18502;43.574;1.276;2023-04-01T02:55:34;9.80;99.90
31979;DHT22;18502;43.574;1.276;2023-04-01T02:58:00;9.60;99.90
31979;DHT22;18502;43.574;1.276;2023-04-01T03:00:26;9.60;99.90
31979;DHT22;18502;43.574;1.276;2023-04-01T03:02:53;9.70;99.90
31979;DHT22;18502;43.574;1.276;2023-04-01T03:05:19;9.60;99.90
31979;DHT22;18502;43.574;1.276;2023-04-01T03:07:45;9.60;99.90
31979;DHT22;18502;43.574;1.276;2023-04-01T03:10:10;9.50;99.90
31979;DHT22;18502;43.574;1.276;2023-04-01T03:12:36;9.50;99.90
31979;DHT22;18502;43.574;1.276;2023-04-01T03:15:02;9.40;99.90
31979;DHT22;18502;43.574;1.276;2023-04-01T03:17:28;9.40;99.90
31979;DHT22;18502;43.574;1.276;2023-04-01T03:19:53;9.40;99.90
31979;DHT22;18502;43.574;1.276;2023-04-01T03:22:19;9.30;99.90
31979;DHT22;18502;43.574;1.276;2023-04-01T03:24:47;9.30;99.90
31979;DHT22;18502;43.574;1.276;2023-04-01T03:27:12;9.20;99.90
31979;DHT22;18502;43.574;1.276;2023-04-01T03:29:38;9.40;99.90
31979;DHT22;18502;43.574;1.276;2023-04-01T03:32:04;9.30;99.90
31979;DHT22;18502;43.574;1.276;2023-04-01T03:34:31;9.40;99.90
31979;DHT22;18502;43.574;1.276;2023-04-01T03:36:57;9.50;99.90
31979;DHT22;18502;43.574;1.276;2023-04-01T03:39:23;9.60;99.90
31979;DHT22;18502;43.574;1.276;2023-04-01T03:41:49;9.70;99.90
31979;DHT22;18502;43.574;1.276;2023-04-01T03:44:15;9.70;99.90
31979;DHT22;18502;43.574;1.276;2023-04-01T03:46:40;9.70;99.90
31979;DHT22;18502;43.574;1.276;2023-04-01T03:49:10;9.70;99.90
31979;DHT22;18502;43.574;1.276;2023-04-01T03:51:41;9.70;99.90
31979;DHT22;18502;43.574;1.276;2023-04-01T03:54:07;9.80;99.90
31979;DHT22;18502;43.574;1.276;2023-04-01T03:56:33;9.80;99.90
31979;DHT22;18502;43.574;1.276;2023-04-01T03:59:00;9.90;99.90
31979;DHT22;18502;43.574;1.276;2023-04-01T04:01:26;9.90;99.90
31979;DHT22;18502;43.574;1.276;2023-04-01T04:03:52;9.90;99.90
31979;DHT22;18502;43.574;1.276;2023-04-01T04:06:18;9.80;99.90
31979;DHT22;18502;43.574;1.276;2023-04-01T04:08:44;9.90;99.90
31979;DHT22;18502;43.574;1.276;2023-04-01T04:11:11;10.00;99.90
31979;DHT22;18502;43.574;1.276;2023-04-01T04:13:37;10.00;99.90
31979;DHT22;18502;43.574;1.276;2023-04-01T04:16:03;10.00;99.90
31979;DHT22;18502;43.574;1.276;2023-04-01T04:18:29;10.00;99.90
31979;DHT22;18502;43.574;1.276;2023-04-01T04:20:55;10.00;99.90
31979;DHT22;18502;43.574;1.276;2023-04-01T04:23:20;10.00;99.90
31979;DHT22;18502;43.574;1.276;2023-04-01T04:26:05;10.00;99.90
31979;DHT22;18502;43.574;1.276;2023-04-01T04:28:31;10.00;99.90
31979;DHT22;18502;43.574;1.276;2023-04-01T04:30:57;10.00;99.90
31979;DHT22;18502;43.574;1.276;2023-04-01T04:33:23;10.00;99.90
31979;DHT22;18502;43.574;1.276;2023-04-01T04:35:50;10.00;99.90
31979;DHT22;18502;43.574;1.276;2023-04-01T04:38:16;10.00;99.90
31979;DHT22;18502;43.574;1.276;2023-04-01T04:40:42;10.00;99.90
31979;DHT22;18502;43.574;1.276;2023-04-01T04:43:10;10.00;99.90
31979;DHT22;18502;43.574;1.276;2023-04-01T04:45:36;10.00;99.90
31979;DHT22;18502;43.574;1.276;2023-04-01T04:48:01;10.00;99.90
31979;DHT22;18502;43.574;1.276;2023-04-01T04:50:27;10.00;99.90
31979;DHT22;18502;43.574;1.276;2023-04-01T04:52:53;10.00;99.90
31979;DHT22;18502;43.574;1.276;2023-04-01T04:55:18;10.00;99.90
31979;DHT22;18502;43.574;1.276;2023-04-01T04:57:44;10.00;99.90
31979;DHT22;18502;43.574;1.276;2023-04-01T05:00:10;10.00;99.90
31979;DHT22;18502;43.574;1.276;2023-04-01T05:02:36;9.90;99.90
31979;DHT22;18502;43.574;1.276;2023-04-01T05:05:02;9.90;99.90
31979;DHT22;18502;43.574;1.276;2023-04-01T05:07:28;10.00;99.90
31979;DHT22;18502;43.574;1.276;2023-04-01T05:09:53;9.90;99.90
31979;DHT22;18502;43.574;1.276;2023-04-01T05:12:19;9.90;99.90
31979;DHT22;18502;43.574;1.276;2023-04-01T05:14:45;9.90;99.90
31979;DHT22;18502;43.574;1.276;2023-04-01T05:17:11;9.90;99.90
31979;DHT22;18502;43.574;1.276;2023-04-01T05:19:38;9.80;99.90
31979;DHT22;18502;43.574;1.276;2023-04-01T05:22:04;9.90;99.90
31979;DHT22;18502;43.574;1.276;2023-04-01T05:24:30;9.90;99.90
31979;DHT22;18502;43.574;1.276;2023-04-01T05:26:56;9.90;99.90
31979;DHT22;18502;43.574;1.276;2023-04-01T05:29:26;9.90;99.90
31979;DHT22;18502;43.574;1.276;2023-04-01T05:31:52;9.80;99.90
31979;DHT22;18502;43.574;1.276;2023-04-01T05:34:17;9.80;99.90
31979;DHT22;18502;43.574;1.276;2023-04-01T05:36:43;9.80;99.90
31979;DHT22;18502;43.574;1.276;2023-04-01T05:39:10;9.80;99.90
31979;DHT22;18502;43.574;1.276;2023-04-01T05:41:36;9.80;99.90
31979;DHT22;18502;43.574;1.276;2023-04-01T05:44:02;9.80;99.90
31979;DHT22;18502;43.574;1.276;2023-04-01T05:46:28;9.80;99.90
31979;DHT22;18502;43.574;1.276;2023-04-01T05:48:53;9.80;99.90
31979;DHT22;18502;43.574;1.276;2023-04-01T05:51:19;9.90;99.90
31979;DHT22;18502;43.574;1.276;2023-04-01T05:53:45;10.10;99.90
31979;DHT22;18502;43.574;1.276;2023-04-01T05:56:10;10.10;99.90
31979;DHT22;18502;43.574;1.276;2023-04-01T05:58:37;10.10;99.90
31979;DHT22;18502;43.574;1.276;2023-04-01T06:01:05;10.10;99.90
31979;DHT22;18502;43.574;1.276;2023-04-01T06:03:31;10.10;99.90
31979;DHT22;18502;43.574;1.276;2023-04-01T06:05:56;10.10;99.90
31979;DHT22;18502;43.574;1.276;2023-04-01T06:08:22;10.20;99.90
31979;DHT22;18502;43.574;1.276;2023-04-01T06:13:42;10.20;99.90
31979;DHT22;18502;43.574;1.276;2023-04-01T06:16:31;10.30;99.90
31979;DHT22;18502;43.574;1.276;2023-04-01T06:19:55;10.30;99.90
31979;DHT22;18502;43.574;1.276;2023-04-01T06:39:35;10.50;99.90
31979;DHT22;18502;43.574;1.276;2023-04-01T06:42:04;10.50;99.90
31979;DHT22;18502;43.574;1.276;2023-04-01T06:50:26;10.80;99.90
31979;DHT22;18502;43.574;1.276;2023-04-01T06:53:06;10.80;99.90
31979;DHT22;18502;43.574;1.276;2023-04-01T06:55:46;10.80;99.90
31979;DHT22;18502;43.574;1.276;2023-04-01T06:58:23;10.80;99.90
31979;DHT22;18502;43.574;1.276;2023-04-01T07:01:06;10.90;99.90
31979;DHT22;18502;43.574;1.276;2023-04-01T07:03:33;10.90;99.90
31979;DHT22;18502;43.574;1.276;2023-04-01T07:06:13;11.00;99.90
31979;DHT22;18502;43.574;1.276;2023-04-01T07:08:41;11.00;99.90
31979;DHT22;18502;43.574;1.276;2023-04-01T07:11:21;11.10;99.90
31979;DHT22;18502;43.574;1.276;2023-04-01T07:13:52;11.10;99.90
31979;DHT22;18502;43.574;1.276;2023-04-01T07:16:31;11.10;99.90
31979;DHT22;18502;43.574;1.276;2023-04-01T07:19:21;11.20;99.90
31979;DHT22;18502;43.574;1.276;2023-04-01T07:21:48;11.20;99.90
31979;DHT22;18502;43.574;1.276;2023-04-01T07:24:27;11.20;99.90
31979;DHT22;18502;43.574;1.276;2023-04-01T07:26:56;11.20;99.90
31979;DHT22;18502;43.574;1.276;2023-04-01T07:29:23;11.30;99.90
31979;DHT22;18502;43.574;1.276;2023-04-01T07:37:22;11.80;99.90
31979;DHT22;18502;43.574;1.276;2023-04-01T07:42:53;11.90;99.90
31979;DHT22;18502;43.574;1.276;2023-04-01T07:45:29;11.90;99.90
31979;DHT22;18502;43.574;1.276;2023-04-01T07:50:51;12.00;99.90
31979;DHT22;18502;43.574;1.276;2023-04-01T08:03:57;12.50;99.90
31979;DHT22;18502;43.574;1.276;2023-04-01T08:09:22;12.40;99.90
31979;DHT22;18502;43.574;1.276;2023-04-01T08:12:07;12.60;99.90
31979;DHT22;18502;43.574;1.276;2023-04-01T08:18:21;12.80;99.80
31979;DHT22;18502;43.574;1.276;2023-04-01T08:20:47;13.00;99.90
31979;DHT22;18502;43.574;1.276;2023-04-01T08:23:33;13.00;99.40
31979;DHT22;18502;43.574;1.276;2023-04-01T08:28:46;13.10;99.10
31979;DHT22;18502;43.574;1.276;2023-04-01T08:31:25;13.00;98.70
31979;DHT22;18502;43.574;1.276;2023-04-01T08:33:55;13.10;97.80
31979;DHT22;18502;43.574;1.276;2023-04-01T08:36:39;13.10;97.60
31979;DHT22;18502;43.574;1.276;2023-04-01T08:39:10;13.30;96.50
31979;DHT22;18502;43.574;1.276;2023-04-01T08:42:03;13.70;95.80
31979;DHT22;18502;43.574;1.276;2023-04-01T08:58:42;13.70;92.60
31979;DHT22;18502;43.574;1.276;2023-04-01T09:01:26;13.70;92.30
31979;DHT22;18502;43.574;1.276;2023-04-01T09:07:05;14.40;90.00
31979;DHT22;18502;43.574;1.276;2023-04-01T09:15:27;14.40;84.80
31979;DHT22;18502;43.574;1.276;2023-04-01T09:21:04;14.70;81.00
31979;DHT22;18502;43.574;1.276;2023-04-01T09:41:32;15.00;78.80
31979;DHT22;18502;43.574;1.276;2023-04-01T09:44:19;14.60;79.20
31979;DHT22;18502;43.574;1.276;2023-04-01T09:50:00;14.70;80.40
31979;DHT22;18502;43.574;1.276;2023-04-01T09:52:47;15.20;79.40
31979;DHT22;18502;43.574;1.276;2023-04-01T10:07:08;15.60;69.30
31979;DHT22;18502;43.574;1.276;2023-04-01T10:30:21;15.40;68.90
31979;DHT22;18502;43.574;1.276;2023-04-01T10:36:01;15.60;67.20
31979;DHT22;18502;43.574;1.276;2023-04-01T10:44:34;15.80;63.60
31979;DHT22;18502;43.574;1.276;2023-04-01T10:47:33;16.00;64.90
31979;DHT22;18502;43.574;1.276;2023-04-01T10:53:07;15.80;67.20
31979;DHT22;18502;43.574;1.276;2023-04-01T11:08:37;14.00;86.80
31979;DHT22;18502;43.574;1.276;2023-04-01T11:44:20;12.00;99.90
31979;DHT22;18502;43.574;1.276;2023-04-01T11:49:47;11.90;99.90
31979;DHT22;18502;43.574;1.276;2023-04-01T11:52:25;12.30;99.90
31979;DHT22;18502;43.574;1.276;2023-04-01T11:55:15;12.70;99.90
31979;DHT22;18502;43.574;1.276;2023-04-01T12:00:47;13.00;99.90
31979;DHT22;18502;43.574;1.276;2023-04-01T12:06:11;13.20;99.90
31979;DHT22;18502;43.574;1.276;2023-04-01T12:14:36;12.80;99.90
31979;DHT22;18502;43.574;1.276;2023-04-01T12:17:48;13.30;99.90
31979;DHT22;18502;43.574;1.276;2023-04-01T12:20:33;13.30;99.90
31979;DHT22;18502;43.574;1.276;2023-04-01T12:32:25;11.50;99.90
31979;DHT22;18502;43.574;1.276;2023-04-01T12:45:35;12.50;99.90
31979;DHT22;18502;43.574;1.276;2023-04-01T13:30:02;11.90;99.90
31979;DHT22;18502;43.574;1.276;2023-04-01T13:35:26;11.20;99.90
31979;DHT22;18502;43.574;1.276;2023-04-01T13:38:24;11.00;99.90
31979;DHT22;18502;43.574;1.276;2023-04-01T13:43:43;10.90;99.90
31979;DHT22;18502;43.574;1.276;2023-04-01T13:49:30;11.10;99.90
31979;DHT22;18502;43.574;1.276;2023-04-01T13:52:22;10.80;99.90
31979;DHT22;18502;43.574;1.276;2023-04-01T14:21:57;10.80;99.90
31979;DHT22;18502;43.574;1.276;2023-04-01T14:30:13;10.50;99.90
31979;DHT22;18502;43.574;1.276;2023-04-01T14:42:19;10.50;99.90
31979;DHT22;18502;43.574;1.276;2023-04-01T14:50:44;10.20;99.90
31979;DHT22;18502;43.574;1.276;2023-04-01T14:53:38;10.10;99.90
31979;DHT22;18502;43.574;1.276;2023-04-01T14:56:04;10.10;99.90
31979;DHT22;18502;43.574;1.276;2023-04-01T14:58:46;8.80;99.90
31979;DHT22;18502;43.574;1.276;2023-04-01T15:18:21;8.50;99.90
31979;DHT22;18502;43.574;1.276;2023-04-01T15:26:52;8.40;99.90
31979;DHT22;18502;43.574;1.276;2023-04-01T15:40:45;8.80;99.90
31979;DHT22;18502;43.574;1.276;2023-04-01T15:43:41;9.10;99.90
31979;DHT22;18502;43.574;1.276;2023-04-01T16:06:08;9.50;99.90
31979;DHT22;18502;43.574;1.276;2023-04-01T16:25:45;11.80;99.90
31979;DHT22;18502;43.574;1.276;2023-04-01T16:31:08;9.00;99.90
31979;DHT22;18502;43.574;1.276;2023-04-01T16:33:50;8.70;99.90
31979;DHT22;18502;43.574;1.276;2023-04-01T16:44:24;8.60;99.90
31979;DHT22;18502;43.574;1.276;2023-04-01T16:46:53;8.50;99.90
31979;DHT22;18502;43.574;1.276;2023-04-01T16:49:36;8.60;99.90
31979;DHT22;18502;43.574;1.276;2023-04-01T16:54:35;8.40;99.90
31979;DHT22;18502;43.574;1.276;2023-04-01T16:59:54;8.40;99.90
31979;DHT22;18502;43.574;1.276;2023-04-01T17:02:28;8.60;99.90
31979;DHT22;18502;43.574;1.276;2023-04-01T17:05:01;8.20;99.90
31979;DHT22;18502;43.574;1.276;2023-04-01T17:13:23;8.60;99.90
31979;DHT22;18502;43.574;1.276;2023-04-01T17:23:44;9.60;99.90
31979;DHT22;18502;43.574;1.276;2023-04-01T17:26:18;9.30;99.90
31979;DHT22;18502;43.574;1.276;2023-04-01T17:34:42;8.90;99.90
31979;DHT22;18502;43.574;1.276;2023-04-01T17:37:54;8.90;99.90
31979;DHT22;18502;43.574;1.276;2023-04-01T17:40:38;8.90;99.90
31979;DHT22;18502;43.574;1.276;2023-04-01T17:46:05;8.70;99.90
31979;DHT22;18502;43.574;1.276;2023-04-01T17:49:28;8.60;99.90
31979;DHT22;18502;43.574;1.276;2023-04-01T17:57:46;8.30;99.90
31979;DHT22;18502;43.574;1.276;2023-04-01T18:00:37;8.10;99.90
31979;DHT22;18502;43.574;1.276;2023-04-01T18:06:04;7.70;99.90
31979;DHT22;18502;43.574;1.276;2023-04-01T18:14:53;7.90;99.90
31979;DHT22;18502;43.574;1.276;2023-04-01T18:20:01;7.80;99.90
31979;DHT22;18502;43.574;1.276;2023-04-01T18:22:39;7.80;99.90
31979;DHT22;18502;43.574;1.276;2023-04-01T18:25:21;7.70;99.90
31979;DHT22;18502;43.574;1.276;2023-04-01T18:28:05;7.70;99.90
31979;DHT22;18502;43.574;1.276;2023-04-01T18:30:32;7.60;99.90
31979;DHT22;18502;43.574;1.276;2023-04-01T18:33:19;7.50;99.90
31979;DHT22;18502;43.574;1.276;2023-04-01T18:38:53;7.50;99.90
31979;DHT22;18502;43.574;1.276;2023-04-01T18:41:33;7.40;99.90
31979;DHT22;18502;43.574;1.276;2023-04-01T18:52:39;7.30;99.90
31979;DHT22;18502;43.574;1.276;2023-04-01T19:05:45;7.60;99.90
31979;DHT22;18502;43.574;1.276;2023-04-01T19:08:28;7.60;99.90
31979;DHT22;18502;43.574;1.276;2023-04-01T19:11:08;7.60;99.90
31979;DHT22;18502;43.574;1.276;2023-04-01T19:37:50;7.20;99.90
31979;DHT22;18502;43.574;1.276;2023-04-01T19:43:18;7.30;99.90
31979;DHT22;18502;43.574;1.276;2023-04-01T19:45:59;7.30;99.90
31979;DHT22;18502;43.574;1.276;2023-04-01T19:49:47;7.30;99.90
31979;DHT22;18502;43.574;1.276;2023-04-01T19:51:59;7.30;99.90
31979;DHT22;18502;43.574;1.276;2023-04-01T19:59:47;7.30;99.90
31979;DHT22;18502;43.574;1.276;2023-04-01T20:02:26;7.40;99.90
31979;DHT22;18502;43.574;1.276;2023-04-01T20:04:54;7.40;99.90
31979;DHT22;18502;43.574;1.276;2023-04-01T20:07:40;7.40;99.90
31979;DHT22;18502;43.574;1.276;2023-04-01T20:10:20;7.30;99.90
31979;DHT22;18502;43.574;1.276;2023-04-01T20:15:44;7.30;99.90
31979;DHT22;18502;43.574;1.276;2023-04-01T20:18:20;7.30;99.90
31979;DHT22;18502;43.574;1.276;2023-04-01T20:21:05;7.40;99.90
31979;DHT22;18502;43.574;1.276;2023-04-01T20:23:54;7.50;99.90
31979;DHT22;18502;43.574;1.276;2023-04-01T20:26:25;7.60;99.90
31979;DHT22;18502;43.574;1.276;2023-04-01T20:31:40;7.60;99.90
31979;DHT22;18502;43.574;1.276;2023-04-01T20:39:52;7.40;99.90
31979;DHT22;18502;43.574;1.276;2023-04-01T20:42:39;7.40;99.90
31979;DHT22;18502;43.574;1.276;2023-04-01T20:48:33;7.50;99.90
31979;DHT22;18502;43.574;1.276;2023-04-01T20:51:05;7.60;99.90
31979;DHT22;18502;43.574;1.276;2023-04-01T21:02:18;7.40;99.90
31979;DHT22;18502;43.574;1.276;2023-04-01T21:18:43;7.20;99.90
31979;DHT22;18502;43.574;1.276;2023-04-01T21:24:35;7.10;99.90
31979;DHT22;18502;43.574;1.276;2023-04-01T21:32:46;7.00;99.90
31979;DHT22;18502;43.574;1.276;2023-04-01T21:51:43;7.00;99.90
31979;DHT22;18502;43.574;1.276;2023-04-01T21:54:55;7.00;99.90
31979;DHT22;18502;43.574;1.276;2023-04-01T21:57:59;6.90;99.90
31979;DHT22;18502;43.574;1.276;2023-04-01T22:00:42;6.90;99.90
31979;DHT22;18502;43.574;1.276;2023-04-01T22:06:37;6.90;99.90
31979;DHT22;18502;43.574;1.276;2023-04-01T22:09:10;6.90;99.90
31979;DHT22;18502;43.574;1.276;2023-04-01T22:11:53;7.00;99.90
31979;DHT22;18502;43.574;1.276;2023-04-01T22:20:12;7.00;99.90
31979;DHT22;18502;43.574;1.276;2023-04-01T22:23:00;7.00;99.90
31979;DHT22;18502;43.574;1.276;2023-04-01T22:28:06;7.00;99.90
31979;DHT22;18502;43.574;1.276;2023-04-01T22:30:39;7.00;99.90
31979;DHT22;18502;43.574;1.276;2023-04-01T22:43:54;6.80;99.90
31979;DHT22;18502;43.574;1.276;2023-04-01T22:52:02;6.80;99.90
31979;DHT22;18502;43.574;1.276;2023-04-01T22:54:32;6.70;99.90
31979;DHT22;18502;43.574;1.276;2023-04-01T23:05:41;6.70;99.90
31979;DHT22;18502;43.574;1.276;2023-04-01T23:11:30;6.70;99.90
31979;DHT22;18502;43.574;1.276;2023-04-01T23:16:33;6.60;99.90
31979;DHT22;18502;43.574;1.276;2023-04-01T23:25:04;6.50;99.90
31979;DHT22;18502;43.574;1.276;2023-04-01T23:27:51;6.50;99.90
31979;DHT22;18502;43.574;1.276;2023-04-01T23:38:31;6.40;99.90
31979;DHT22;18502;43.574;1.276;2023-04-01T23:40:57;6.40;99.90
31979;DHT22;18502;43.574;1.276;2023-04-01T23:43:56;6.50;99.90
31979;DHT22;18502;43.574;1.276;2023-04-01T23:46:24;6.60;99.90
31979;DHT22;18502;43.574;1.276;2023-04-01T23:48:50;6.60;99.90
31979;DHT22;18502;43.574;1.276;2023-04-01T23:51:26;6.50;99.90
31979;DHT22;18502;43.574;1.276;2023-04-01T23:54:03;6.50;99.90
31979;DHT22;18502;43.574;1.276;2023-04-01T23:56:41;6.50;99.90
31979;DHT22;18502;43.574;1.276;2023-04-01T23:59:16;6.60;99.90
